createdAt,value
2024-01-06T00:00:00.995Z,4.97
2024-01-06T00:05:04.499Z,4.63
2024-01-06T00:10:14.056Z,3.47
2024-01-06T00:15:19.329Z,7.47
2024-01-06T00:20:22.606Z,4.23
2024-01-06T00:25:27.405Z,4.60
2024-01-06T00:30:30.932Z,5.80
2024-01-06T00:35:34.402Z,6.27
2024-01-06T00:40:39.274Z,4.67
2024-01-06T00:45:42.495Z,6.33
2024-01-06T00:50:45.994Z,4.00
2024-01-06T00:55:50.770Z,7.30
2024-01-06T01:00:54.389Z,6.13
2024-01-06T01:05:59.034Z,4.40
2024-01-06T01:11:14.099Z,6.40
2024-01-06T01:16:34.412Z,4.00
2024-01-06T01:21:41.360Z,4.93
2024-01-06T01:27:06.050Z,5.63
2024-01-06T01:32:13.082Z,5.83
2024-01-06T01:37:30.328Z,4.70
2024-01-06T01:42:35.638Z,5.53
2024-01-06T01:47:40.873Z,6.20
2024-01-06T01:52:45.074Z,6.13
2024-01-06T01:57:50.115Z,7.13
2024-01-06T02:02:54.404Z,8.67
2024-01-06T02:07:58.049Z,6.50
2024-01-06T02:13:12.301Z,5.80
2024-01-06T02:18:16.413Z,7.17
2024-01-06T02:23:23.096Z,6.83
2024-01-06T02:28:27.191Z,4.67
2024-01-06T02:33:30.430Z,6.93
2024-01-06T02:38:35.380Z,5.40
2024-01-06T02:43:38.688Z,5.37
2024-01-06T02:48:42.520Z,6.43
2024-01-06T02:53:47.533Z,4.90
2024-01-06T02:58:51.346Z,6.10
2024-01-06T03:03:54.632Z,5.43
2024-01-06T03:08:59.283Z,5.20
2024-01-06T03:14:02.680Z,4.50
2024-01-06T03:19:06.308Z,9.53
2024-01-06T03:24:11.474Z,7.77
2024-01-06T03:29:14.737Z,9.30
2024-01-06T03:34:18.109Z,8.13
2024-01-06T03:39:22.907Z,6.67
2024-01-06T03:44:26.586Z,8.93
2024-01-06T03:49:30.263Z,8.07
2024-01-06T03:54:35.193Z,6.53
2024-01-06T03:59:38.552Z,5.93
2024-01-06T04:04:41.880Z,5.63
2024-01-06T04:09:47.113Z,5.77
2024-01-06T04:14:50.430Z,7.33
2024-01-06T04:19:53.829Z,7.73
2024-01-06T04:24:58.697Z,7.30
2024-01-06T04:30:02.156Z,7.43
2024-01-06T04:35:05.993Z,5.10
2024-01-06T04:40:12.436Z,5.53
2024-01-06T04:45:15.806Z,5.57
2024-01-06T04:50:19.643Z,6.37
2024-01-06T04:55:24.192Z,10.43
2024-01-06T05:00:28.086Z,6.93
2024-01-06T05:05:31.405Z,6.03
2024-01-06T05:10:36.188Z,6.03
2024-01-06T05:15:39.479Z,5.60
2024-01-06T05:20:43.313Z,6.47
2024-01-06T05:25:48.815Z,7.43
2024-01-06T05:30:52.106Z,10.40
2024-01-06T05:35:55.795Z,7.77
2024-01-06T05:41:01.294Z,7.30
2024-01-06T05:46:04.835Z,8.27
2024-01-06T05:51:08.647Z,7.43
2024-01-06T05:56:13.392Z,6.50
2024-01-06T06:01:17.979Z,9.40
2024-01-06T06:06:22.674Z,10.23
2024-01-06T06:11:27.305Z,8.60
2024-01-06T06:16:31.287Z,6.10
2024-01-06T06:21:36.743Z,9.53
2024-01-06T06:26:42.525Z,11.43
2024-01-06T06:31:48.004Z,7.07
2024-01-06T06:36:51.513Z,8.33
2024-01-06T06:41:56.465Z,8.03
2024-01-06T06:46:59.959Z,7.30
2024-01-06T06:52:05.015Z,8.60
2024-01-06T06:57:09.828Z,7.17
2024-01-06T07:02:13.232Z,5.93
2024-01-06T07:07:16.485Z,6.33
2024-01-06T07:12:21.430Z,8.27
2024-01-06T07:17:25.113Z,8.80
2024-01-06T07:22:28.621Z,9.70
2024-01-06T07:27:33.790Z,10.73
2024-01-06T07:32:37.799Z,5.73
2024-01-06T07:37:44.124Z,9.67
2024-01-06T07:42:49.502Z,11.60
2024-01-06T07:47:53.012Z,8.17
2024-01-06T07:52:56.714Z,8.90
2024-01-06T07:58:01.537Z,7.37
2024-01-06T08:03:07.364Z,6.93
2024-01-06T08:08:10.885Z,6.00
2024-01-06T08:13:16.015Z,8.00
2024-01-06T08:18:19.882Z,6.87
2024-01-06T08:23:23.349Z,8.50
2024-01-06T08:28:28.528Z,9.90
2024-01-06T08:33:32.014Z,8.63
2024-01-06T08:38:35.314Z,7.30
2024-01-06T08:43:40.157Z,11.10
2024-01-06T08:48:46.332Z,7.53
2024-01-06T08:53:51.119Z,5.80
2024-01-06T08:58:56.187Z,7.47
2024-01-06T09:04:00.827Z,4.70
2024-01-06T09:09:05.442Z,6.80
2024-01-06T09:14:12.171Z,5.10
2024-01-06T09:19:15.531Z,12.53
2024-01-06T09:24:19.196Z,5.27
2024-01-06T09:29:28.518Z,7.73
2024-01-06T09:34:32.725Z,4.23
2024-01-06T09:39:37.528Z,6.03
2024-01-06T09:44:44.744Z,8.13
2024-01-06T09:49:52.923Z,8.27
2024-01-06T09:54:57.511Z,9.77
2024-01-06T10:00:02.713Z,13.27
2024-01-06T10:05:06.792Z,8.57
2024-01-06T10:10:11.610Z,12.30
2024-01-06T10:15:16.436Z,10.53
2024-01-06T10:20:21.480Z,9.23
2024-01-06T10:25:27.807Z,9.50
2024-01-06T10:30:36.043Z,9.27
2024-01-06T10:35:42.531Z,10.17
2024-01-06T10:40:58.608Z,9.53
2024-01-06T10:46:06.310Z,9.50
2024-01-06T10:51:12.417Z,9.07
2024-01-06T10:56:16.009Z,11.03
2024-01-06T11:01:26.870Z,10.73
2024-01-06T11:06:35.853Z,8.23
2024-01-06T11:11:41.224Z,8.23
2024-01-06T11:16:46.065Z,6.73
2024-01-06T11:21:49.578Z,10.00
2024-01-06T11:32:41.175Z,8.87
2024-01-06T11:37:56.636Z,10.47
2024-01-06T11:43:01.836Z,12.10
2024-01-06T11:48:09.346Z,8.20
2024-01-06T11:53:15.626Z,8.57
2024-01-06T11:58:19.411Z,9.20
2024-01-06T12:03:28.222Z,9.53
2024-01-06T12:08:32.530Z,9.27
2024-01-06T12:13:35.773Z,6.97
2024-01-06T12:18:40.880Z,9.20
2024-01-06T12:23:44.213Z,9.30
2024-01-06T12:28:47.878Z,12.30
2024-01-06T12:33:54.132Z,12.53
2024-01-06T12:38:59.809Z,11.90
2024-01-06T12:44:03.423Z,13.60
2024-01-06T12:49:08.263Z,13.53
2024-01-06T12:54:12.031Z,14.77
2024-01-06T12:59:15.509Z,16.47
2024-01-06T13:04:28.944Z,16.57
2024-01-06T13:09:32.686Z,17.40
2024-01-06T13:14:37.288Z,18.93
2024-01-06T13:19:42.067Z,19.27
2024-01-06T13:24:45.547Z,20.90
2024-01-06T13:29:49.947Z,27.13
2024-01-06T13:34:58.010Z,27.13
2024-01-06T13:40:01.697Z,29.97
2024-01-06T13:45:05.445Z,31.30
2024-01-06T13:50:12.821Z,31.80
2024-01-06T13:55:16.372Z,32.40
2024-01-06T14:00:21.841Z,32.83
2024-01-06T14:05:36.061Z,34.73
2024-01-06T14:10:40.639Z,32.13
2024-01-06T14:15:45.306Z,30.03
2024-01-06T14:20:52.736Z,35.70
2024-01-06T14:25:56.259Z,43.10
2024-01-06T14:31:09.023Z,40.13
2024-01-06T14:36:14.203Z,38.00
2024-01-06T14:41:17.924Z,42.50
2024-01-06T14:46:21.609Z,39.47
2024-01-06T14:51:28.212Z,39.73
2024-01-06T14:56:32.133Z,46.93
2024-01-06T15:01:35.734Z,40.50
2024-01-06T15:06:41.386Z,41.90
2024-01-06T15:11:47.771Z,50.00
2024-01-06T15:16:51.530Z,45.37
2024-01-06T15:21:56.912Z,48.03
2024-01-06T15:27:00.526Z,58.90
2024-01-06T15:32:07.033Z,63.30
2024-01-06T15:37:14.578Z,62.47
2024-01-06T15:42:17.897Z,71.30
2024-01-06T15:47:21.700Z,64.73
2024-01-06T15:52:26.781Z,64.83
2024-01-06T15:57:34.697Z,57.77
2024-01-06T16:02:40.236Z,60.00
2024-01-06T16:07:46.246Z,54.77
2024-01-06T16:12:49.919Z,56.33
2024-01-06T16:17:54.031Z,55.77
2024-01-06T16:22:59.302Z,55.60
2024-01-06T16:28:02.674Z,53.67
2024-01-06T16:33:08.684Z,71.93
2024-01-06T16:38:13.948Z,82.80
2024-01-06T16:43:17.400Z,68.93
2024-01-06T16:48:21.616Z,78.07
2024-01-06T16:53:27.855Z,82.40
2024-01-06T16:58:31.254Z,63.73
2024-01-06T17:03:43.100Z,84.30
2024-01-06T17:08:50.733Z,82.33
2024-01-06T17:13:54.812Z,79.53
2024-01-06T17:24:17.689Z,74.00
2024-01-06T17:29:20.998Z,80.77
2024-01-06T17:34:25.449Z,69.00
2024-01-06T17:39:33.690Z,75.63
2024-01-06T17:44:39.076Z,70.67
2024-01-06T17:49:43.103Z,77.50
2024-01-06T17:54:48.322Z,80.40
2024-01-06T17:59:58.012Z,78.53
2024-01-06T18:05:07.897Z,74.37
2024-01-06T18:10:13.208Z,73.83
2024-01-06T18:15:17.420Z,60.17
2024-01-06T18:20:23.090Z,66.50
2024-01-06T18:25:29.471Z,79.23
2024-01-06T18:30:33.514Z,67.07
2024-01-06T18:35:37.430Z,71.67
2024-01-06T18:40:42.608Z,77.17
2024-01-06T18:45:46.604Z,76.07
2024-01-06T18:50:50.001Z,83.97
2024-01-06T18:55:55.534Z,86.93
2024-01-06T19:01:01.053Z,83.70
2024-01-06T19:06:08.120Z,71.37
2024-01-06T19:11:13.905Z,71.10
2024-01-06T19:16:20.985Z,69.17
2024-01-06T19:21:24.517Z,64.60
2024-01-06T19:26:29.163Z,62.83
2024-01-06T19:31:32.440Z,58.87
2024-01-06T19:36:35.817Z,56.40
2024-01-06T19:41:40.693Z,61.03
2024-01-06T19:46:44.594Z,61.37
2024-01-06T19:51:53.558Z,54.60
2024-01-06T19:56:59.034Z,48.20
2024-01-06T20:02:02.237Z,46.43
2024-01-06T20:07:08.433Z,49.33
2024-01-06T20:12:14.035Z,57.80
2024-01-06T20:17:23.595Z,53.87
2024-01-06T20:22:28.632Z,58.70
2024-01-06T20:27:35.264Z,56.23
2024-01-06T20:32:41.347Z,56.40
2024-01-06T20:37:51.324Z,59.27
2024-01-06T20:48:12.466Z,57.20
2024-01-06T20:53:16.362Z,61.37
2024-01-06T20:58:20.124Z,58.03
2024-01-06T21:03:29.251Z,59.37
2024-01-06T21:08:33.773Z,61.53
2024-01-06T21:13:37.269Z,52.67
2024-01-06T21:18:44.361Z,50.03
2024-01-06T21:23:49.505Z,55.30
2024-01-06T21:28:53.474Z,46.63
2024-01-06T21:33:58.181Z,42.03
2024-01-06T21:39:01.822Z,42.30
2024-01-06T21:44:05.369Z,46.07
2024-01-06T21:49:12.280Z,48.90
2024-01-06T21:54:15.754Z,85.73
2024-01-06T21:59:19.205Z,50.87
2024-01-06T22:04:26.445Z,47.43
2024-01-06T22:09:30.203Z,48.37
2024-01-06T22:14:33.515Z,50.67
2024-01-06T22:19:40.280Z,45.50
2024-01-06T22:24:44.199Z,46.23
2024-01-06T22:29:47.587Z,44.87
2024-01-06T22:34:56.801Z,38.27
2024-01-06T22:40:01.591Z,41.07
2024-01-06T22:45:05.229Z,37.43
2024-01-06T22:50:10.855Z,37.03
2024-01-06T22:55:14.835Z,35.20
2024-01-06T23:00:29.224Z,34.57
2024-01-06T23:05:35.483Z,32.20
2024-01-06T23:10:38.870Z,32.27
2024-01-06T23:15:42.280Z,34.33
2024-01-06T23:20:47.375Z,27.73
2024-01-06T23:25:50.817Z,25.93
2024-01-06T23:30:54.297Z,24.20
2024-01-06T23:35:59.025Z,26.67
2024-01-06T23:41:02.398Z,22.87
2024-01-06T23:46:06.073Z,27.47
2024-01-06T23:51:16.981Z,27.57
2024-01-06T23:56:20.715Z,26.40
